Timeline UpdatesTrip UpdatesNews PostsPvt PostsTravel TipsAdmin PostsConv PostsFollowed PostsChat RequestsBlog PostsPNR Posts

Disclaimer
Search
 
 
Sat Jul 26, 2014 22:44:41 ISTHomeTrainsΣChainsAtlasPNRForumGalleryNewsFAQTripsMembersLoginFeedback
No Recent News for this Train
Other Trains in the News **new
Latest...
.
Wed Feb 26, 2014 (06:54PM)
⇐ Return Journey: Train# 15018

15017/Kashi Express

Jul 24 (8:42PM)
Change Departure Station:
Change Arrival Station:
Post a Train Travel TipPost a Train Travel Tip **new
Post a Comment/Question/Picture/VideoPost a Comment/Question/Picture/Video
Pantry/Catering
✕ NO Pantry Car
✓ Catering Avbl
Loco/Rake Reversals
ALD/Allahabad Junction (10);
RSA - Rake Sharing
No RSA.
Rake/Coach Composition
Loco-GEN-GEN-GEN-S1-S2-S3-S4-S5-S6-S7-S8-S9-S10-S11-S12-A1-B1-GEN-GEN-SLR; As per Shubham in # 127749.
Loco
LTT-ET :-BSL/ET WAP-4 / WAM-4 ET-GKP :-ET WDM-3A/3D.
News    PNR    Forum    Time-Table    Availability    Fare Chart    Map    Arr/Dep History    Trips    Gallery    ΣChains    X/O    Timeline    
Travel Time: 36h 35m    70 halts    Distance: 1709 km    Avg Speed: 46 km/hr
Type: Mail/Express
Zone: NER/North Eastern
Departs @ 06:35
Platform# 3
SMTWTFS
Mumbai Lokmanya Tilak Terminus/LTT 
Arrives @ 19:10 +1 night
Platform# 6
SMTWTFS
Gorakhpur Junction/GKP 

70 halts. 230 intermediate Stations between Mumbai Lokmanya Tilak Terminus and Gorakhpur Junction

Show ALL intermediate Stations  Show Old Time-Table

#CodeStation NameX/OArrivesAvgDepartsAvgHaltPFDay#KmSpeedElevZoneAddress
1LTT»Mumbai Lokmanya Tilak Terminus (5)»  -06:35-310.0417mCRMumbai, Maharashtra
2TNAThane (10)X  06:59-07:00-1m7116.56710mCRThane, Maharashtra
3KYNKalyan Junction (8)  07:18-07:22-4m4136.76110mCRKalyan 421301, Maharashtra
4KSRAKasara (4)X  08:28-08:30-2m11104.125290mCRDist. Thane 421602, Maharashtra
5IGPIgatpuri (4)X09:05-09:10-5m21118.571589mCRIgatpuri 422403, Maharashtra
6DVLDevlali (3)X  09:48-09:50-2m11163.434561mCRDist. Nashik 422401, Maharashtra
7NKNasik Road (3)  10:00-10:05-5m21169.176563mCRNashik 422101, Maharashtra
8LSLasalgaon (3)  10:43-10:45-2m--1217.474592mCRLasalgaon, Maharashtra
9MMRManmad Junction (6)X  11:05-11:10-5m21241.985580mCRManmad 423104, Maharashtra
10NGNNandgaon (3)  11:28-11:30-2m--1267.390476mCRNandgaon, Maharashtra
11CSNChalisgaon Junction (3)  11:58-12:00-2m--1309.596352mCRChalisgaon 424101, Maharashtra
12PCPachora Junction (4)  12:28-12:30-2m--1354.389264mCRPachora 424201, Maharashtra
13JLJalgaon Junction (4)  13:02-13:05-3m31402.041213mCRJalgaon 425001, Maharashtra
14BSLBhusaval Junction (8)X  13:40-13:50-10m--1426.169208mCRBhusaval 425201, Maharashtra
15RVRaver (2)  14:20-14:22-2m--1460.476242mCRJalgaon, Maharashtra
16BAUBurhanpur (2)X  14:38-14:40-2m21480.687269mCRBurhanpur, Madhya Pradesh
17NPNRNepanagar (2)  14:58-15:00-2m--1506.826289mCRState Highway 27, Madhya Pradesh
18KNWKhandwa Junction (5)XO  16:40-16:45-5m11549.573310mCRKhandwa, Madhya Pradesh
19TLVTalvadiya (2)XO  16:58-17:00-2m--1565.271308mWCRKhandwa, Madhya Pradesh
20SGBJSurgaon Banjari (2)XO  17:10-17:12-2m--1577.077298mWCRKhandwa, Madhya Pradesh
21CAERChhanera (2)O  17:26-17:28-2m--1594.961283mWCRChhanera, Madhya Pradesh
22BRUDBarud (2)  17:38-17:40-2m--1605.095273mWCRKhandwa, Madhya Pradesh
23KKNKhirkiya (2)  17:53-17:55-2m21625.6105281mWCRSH 15, Madhya Pradesh
24HDHarda (3)XO  18:13-18:15-2m--1657.156289mWCRHarda, Madhya Pradesh
25TBNTimarni (2)X  18:30-18:32-2m--1671.250308mWCRTimarni, Madhya Pradesh
26BPFBanapura (2)XO  19:06-19:08-2m--1699.416314mWCRBanapura, Madhya Pradesh
27ETItarsi Junction (7)X21:10-21:20-10m11732.974329mWCRItarsi 461111, Madhya Pradesh
28SGPSohagpur (2)X  22:00-22:02-2m--1782.476340mWCRSohagpur, Madhya Pradesh
29PPIPipariya (3)  22:16-22:18-2m11800.199338mWCRPiparia, Madhya Pradesh
30GARGadarwara (2)X  22:48-22:50-2m11849.568352mWCRNarsinghpur, Madhya Pradesh
31KYKareli (2)  23:15-23:17-2m11878.086361mWCRKareli, Madhya Pradesh
32NUNarsinghpur (2)  23:28-23:30-2m11893.860365mWCRNarsimhapur, Madhya Pradesh
33SRIDShridham (3)XO  00:01-00:03-2m22925.076373mWCRShridham, Madhya Pradesh
34MMLMadan Mahal (3)  00:42-00:44-2m22974.618428mWCRJabalpur, Madhya Pradesh
35JBPJabalpur Junction (4)X  00:55-01:05-10m32977.975416mWCRJabalpur, Madhya Pradesh
36SHRSihora Road (2)X  01:36-01:38-2m--21016.575388mWCRJabalpur, Madhya Pradesh
37KTEKatni Junction (6)XO  02:20-02:25-5m--21068.767387mWCRKatni, Madhya Pradesh
38MYRMaihar (3)X  03:21-03:23-2m121131.766353mWCRMaihar Railway Station, Madhya Pradesh
39STASatna Junction (3)X  03:55-04:05-10m--21167.171322mWCRSatna, Madhya Pradesh
40JTWJaitwar (2)X  04:22-04:24-2m--21187.240321mWCRJaitwar, Madhya Pradesh
41MKPManikpur Junction (4)X  05:50-05:55-5m221244.875250mNCRManikpur, Uttar Pradesh
42DBRDabhaura (2)X  06:13-06:15-2m--21267.372201mNCRDabhaura, Uttar Pradesh
43SRJShankargarh (3)  06:42-06:44-2m221299.866132mNCRShankargarh, Uttar Pradesh
44JSRJasra (2)X  07:04-07:06-2m--21321.62497mNCRJasra, Uttar Pradesh
45NYNNaini Junction (4)X  07:45-07:47-2m421337.21998mNCRAllahabad, Uttar Pradesh
46ALDAllahabad Junction (10)O08:10-08:30-20m921344.322100mNCRAllahabad 211003, Uttar Pradesh
47PRGPrayag Junction (3)X  08:47-08:49-2m--21350.61596mNRAllahabad, Uttar Pradesh
48PFMPhaphamau Junction (3)X  09:14-09:15-1m--21357.05699mNRAllahabad, Uttar Pradesh
49SYCSarai Chandi  09:29-09:30-1m--21370.15395mNR221507, Uttar Pradesh
50PLPPhulpur (3)  09:42-09:43-1m121380.66993mNRDistrict - Allahabad 212402, Uttar Pradesh
51URPRUgrasenpur (2)  09:52-09:53-1m121391.05096mNRJanghai, Uttar Pradesh
52JNHJanghai Junction (3)  10:08-10:10-2m121403.63092mNRUttar Pradesh 212401, Uttar Pradesh
53SQNSarai Kansrai (2)X  10:20-10:21-1m--21408.63892mNRGopalaha Marg, Uttar Pradesh
54SAWSuriawan (2)  10:37-10:38-1m--21418.74890mNR221404, Uttar Pradesh
55MOFMondh (2)  10:47-10:48-1m121425.94491mNRUttar Pradesh 221406, Uttar Pradesh
56BOYBhadohi (2)  10:59-11:01-2m--21434.03890mNRUttar Pradesh 221401, Uttar Pradesh
57PRFParsipur (2)  11:14-11:15-1m--21442.35687mNRSant Ravidas Nagar, Uttar Pradesh
58KEHKapseti (2)  11:24-11:25-1m--21450.73585mNRState Highway 87, Uttar Pradesh
59SWPRSewapuri (2)X  11:34-11:35-1m121456.02187mNRState Highway 87, Uttar Pradesh
60BSBVaranasi Junction (9)X  12:40-13:00-20m521478.52482mNRVaranasi 221002, Uttar Pradesh
61BCYVaranasi City (3)  13:08-13:10-2m--21481.85877mNERVaranasi, Uttar Pradesh
62ARJAunrihar Junction (4)  13:43-13:45-2m--21513.67180mNERGhazipur, Uttar Pradesh
63JKNJakhanianX  14:09-14:11-2m--21542.13082mNERState Highway 67, Uttar Pradesh
64DLRDullahapur  14:28-14:30-2m--21550.63679mNERDullahapur, Uttar Pradesh
65MAUMau Junction (4)  15:05-15:10-5m221571.63175mNERMau., Uttar Pradesh
66IAAIndara Junction (3)X  15:25-15:27-2m--21579.44574mNERMau, Uttar Pradesh
67BLTRBelthara Road (2)  16:03-16:05-2m--21606.59870mNERBelthara, Uttar Pradesh
68LRDLar Road (2)  16:13-16:15-2m--21619.61874mNERDeoria, Uttar Pradesh
69SRUSalempur Junction (2)X  16:46-16:48-2m--21629.12871mNERSalempur, Uttar Pradesh
70BTTBhatni Junction (5)X  17:10-17:15-5m--21639.36973mNERDeoria, Uttar Pradesh
71DEOSDeoria Sadar (3)  17:33-17:35-2m--21660.13179mNERDeoria- 274001, Uttar Pradesh
72GKP•Gorakhpur Junction (10)•  19:10--621709.2-84mNERGorakhpur 273001, Uttar Pradesh
Scroll to Top
Scroll to Bottom